| time (UTC) | temp F | wind direction | speed MPH | gust MPH | rain 1hr in | rain 24hr in | rain mn in | humidity % | barometer mb |
| 20260506211439 | 90 | 174 | 3.0 | 6.0 | 0.00 | 0.00 | 0.00 | 53 | 1016.4 |
| 20260506210936 | 91 | 177 | 2.0 | 2.0 | 0.00 | 0.00 | 0.00 | 52 | 1016.5 |
| 20260506210433 | 91 | 232 | 2.0 | 3.0 | 0.00 | 0.00 | 0.00 | 53 | 1016.5 |
| 20260506205930 | 91 | 167 | 6.0 | 9.0 | 0.00 | 0.00 | 0.00 | 52 | 1016.5 |
| 20260506205426 | 91 | 114 | 1.0 | 2.0 | 0.00 | 0.00 | 0.00 | 52 | 1016.4 |
| 20260506204922 | 92 | 189 | 7.0 | 9.0 | 0.00 | 0.00 | 0.00 | 51 | 1016.5 |
| 20260506204420 | 92 | 179 | 2.0 | 3.0 | 0.00 | 0.00 | 0.00 | 50 | 1016.4 |
| 20260506203918 | 92 | 195 | 5.0 | 6.0 | 0.00 | 0.00 | 0.00 | 48 | 1016.6 |
| 20260506203414 | 92 | 125 | 4.0 | 5.0 | 0.00 | 0.00 | 0.00 | 48 | 1016.6 |
| 20260506202911 | 93 | 184 | 2.0 | 2.0 | 0.00 | 0.00 | 0.00 | 50 | 1016.7 |
| 20260506202409 | 93 | 83 | 1.0 | 1.0 | 0.00 | 0.00 | 0.00 | 50 | 1016.5 |
| 20260506201905 | 93 | 102 | 0.0 | 1.0 | 0.00 | 0.00 | 0.00 | 50 | 1016.7 |
| 20260506201403 | 92 | 314 | 5.0 | 7.0 | 0.00 | 0.00 | 0.00 | 49 | 1016.6 |
| 20260506200859 | 93 | 264 | 3.0 | 3.0 | 0.00 | 0.00 | 0.00 | 47 | 1016.8 |
| 20260506200355 | 93 | 124 | 1.0 | 2.0 | 0.00 | 0.00 | 0.00 | 48 | 1016.8 |
| 20260506195851 | 93 | 68 | 3.0 | 5.0 | 0.00 | 0.00 | 0.00 | 47 | 1016.9 |
| 20260506195349 | 93 | 113 | 0.0 | 1.0 | 0.00 | 0.00 | 0.00 | 47 | 1016.7 |
| 20260506194846 | 92 | 296 | 4.0 | 6.0 | 0.00 | 0.00 | 0.00 | 47 | 1016.9 |
| 20260506194342 | 93 | 85 | 2.0 | 2.0 | 0.00 | 0.00 | 0.00 | 48 | 1017.2 |
| 20260506193840 | 92 | 271 | 4.0 | 6.0 | 0.00 | 0.00 | 0.00 | 48 | 1017.0 |
| 20260506193336 | 92 | 59 | 1.0 | 1.0 | 0.00 | 0.00 | 0.00 | 50 | 1017.0 |
| 20260506192833 | 92 | 312 | 1.0 | 2.0 | 0.00 | 0.00 | 0.00 | 49 | 1017.0 |
| 20260506192330 | 91 | 108 | 3.0 | 5.0 | 0.00 | 0.00 | 0.00 | 49 | 1017.1 |
| 20260506191827 | 90 | 150 | 5.0 | 6.0 | 0.00 | 0.00 | 0.00 | 54 | 1017.1 |
| 20260506191323 | 92 | 140 | 2.0 | 2.0 | 0.00 | 0.00 | 0.00 | 52 | 1017.2 |
| 20260506190820 | 92 | 87 | 1.0 | 2.0 | 0.00 | 0.00 | 0.00 | 52 | 1017.2 |
| 20260506190316 | 92 | 210 | 4.0 | 5.0 | 0.00 | 0.00 | 0.00 | 51 | 1017.1 |
| 20260506185814 | 91 | 77 | 0.0 | 1.0 | 0.00 | 0.00 | 0.00 | 54 | 1017.4 |
| 20260506185310 | 91 | 150 | 3.0 | 5.0 | 0.00 | 0.00 | 0.00 | 53 | 1017.7 |
| 20260506184807 | 91 | 302 | 1.0 | 2.0 | 0.00 | 0.00 | 0.00 | 55 | 1017.5 |
| 20260506184305 | 92 | 263 | 4.0 | 5.0 | 0.00 | 0.00 | 0.00 | 53 | 1018.0 |
| 20260506183802 | 92 | 278 | 3.0 | 5.0 | 0.00 | 0.00 | 0.00 | 52 | 1017.7 |
| 20260506183257 | 91 | 246 | 3.0 | 3.0 | 0.00 | 0.00 | 0.00 | 54 | 1017.6 |
| 20260506182754 | 91 | 100 | 1.0 | 2.0 | 0.00 | 0.00 | 0.00 | 54 | 1017.9 |
| 20260506182251 | 91 | 79 | 2.0 | 2.0 | 0.00 | 0.00 | 0.00 | 56 | 1017.7 |
| 20260506181749 | 90 | 264 | 4.0 | 6.0 | 0.00 | 0.00 | 0.00 | 55 | 1017.9 |
| 20260506181247 | 89 | 248 | 4.0 | 6.0 | 0.00 | 0.00 | 0.00 | 57 | 1018.1 |
| 20260506180744 | 87 | 57 | 2.0 | 2.0 | 0.00 | 0.00 | 0.00 | 61 | 1018.1 |
| 20260506180239 | 88 | 109 | 2.0 | 3.0 | 0.00 | 0.00 | 0.00 | 61 | 1018.0 |
| 20260506175736 | 89 | 82 | 0.0 | 0.0 | 0.00 | 0.00 | 0.00 | 58 | 1018.2 |
| 20260506175233 | 89 | 95 | 1.0 | 1.0 | 0.00 | 0.00 | 0.00 | 58 | 1018.1 |
| 20260506174730 | 89 | 29 | 2.0 | 2.0 | 0.00 | 0.00 | 0.00 | 57 | 1018.3 |
| 20260506174227 | 90 | 140 | 4.0 | 5.0 | 0.00 | 0.00 | 0.00 | 57 | 1018.4 |
| 20260506173725 | 89 | 158 | 3.0 | 5.0 | 0.00 | 0.00 | 0.00 | 58 | 1018.5 |
| 20260506173221 | 88 | 278 | 2.0 | 2.0 | 0.00 | 0.00 | 0.00 | 58 | 1018.5 |
| 20260506172718 | 89 | 317 | 10.0 | 14.0 | 0.00 | 0.00 | 0.00 | 56 | 1018.5 |
| 20260506172215 | 90 | 179 | 4.0 | 6.0 | 0.00 | 0.00 | 0.00 | 57 | 1018.7 |
| 20260506171713 | 87 | 113 | 2.0 | 2.0 | 0.00 | 0.00 | 0.00 | 63 | 1018.5 |
| 20260506171210 | 87 | 196 | 4.0 | 5.0 | 0.00 | 0.00 | 0.00 | 60 | 1018.6 |
| 20260506170707 | 88 | 191 | 1.0 | 1.0 | 0.00 | 0.00 | 0.00 | 60 | 1018.7 |
| 20260506170204 | 85 | 198 | 2.0 | 3.0 | 0.00 | 0.00 | 0.00 | 64 | 1018.7 |
| 20260506165702 | 86 | 122 | 3.0 | 5.0 | 0.00 | 0.00 | 0.00 | 63 | 1018.8 |
| 20260506165158 | 88 | 349 | 2.0 | 3.0 | 0.00 | 0.00 | 0.00 | 60 | 1018.9 |
| 20260506164655 | 87 | 86 | 3.0 | 3.0 | 0.00 | 0.00 | 0.00 | 63 | 1018.6 |
| 20260506164153 | 85 | 192 | 4.0 | 5.0 | 0.00 | 0.00 | 0.00 | 63 | 1019.0 |
| 20260506163649 | 87 | 224 | 5.0 | 7.0 | 0.00 | 0.00 | 0.00 | 61 | 1019.0 |
| 20260506163144 | 86 | 154 | 3.0 | 5.0 | 0.00 | 0.00 | 0.00 | 62 | 1018.9 |
| 20260506162641 | 86 | 214 | 4.0 | 5.0 | 0.00 | 0.00 | 0.00 | 65 | 1019.0 |
| 20260506162138 | 85 | 163 | 4.0 | 5.0 | 0.00 | 0.00 | 0.00 | 67 | 1018.9 |
| 20260506161635 | 86 | 178 | 2.0 | 3.0 | 0.00 | 0.00 | 0.00 | 64 | 1018.7 |
| 20260506161132 | 85 | 88 | 4.0 | 7.0 | 0.00 | 0.00 | 0.00 | 67 | 1019.0 |
| 20260506160630 | 84 | 188 | 3.0 | 5.0 | 0.00 | 0.00 | 0.00 | 66 | 1019.0 |
| 20260506160126 | 83 | 172 | 7.0 | 8.0 | 0.00 | 0.00 | 0.00 | 68 | 1019.1 |
| 20260506155626 | 84 | 113 | 3.0 | 5.0 | 0.00 | 0.00 | 0.00 | 67 | 1019.0 |
| 20260506155122 | 84 | 190 | 6.0 | 8.0 | 0.00 | 0.00 | 0.00 | 68 | 1018.9 |
| 20260506153224 | 83 | 219 | 3.0 | 5.0 | 0.00 | 0.00 | 0.00 | 70 | 1019.2 |
| 20260506152721 | 83 | 151 | 7.0 | 8.0 | 0.00 | 0.00 | 0.00 | 69 | 1019.1 |
| 20260506152218 | 81 | 139 | 7.0 | 8.0 | 0.00 | 0.00 | 0.00 | 72 | 1019.2 |
| 20260506151717 | 81 | 205 | 4.0 | 7.0 | 0.00 | 0.00 | 0.00 | 73 | 1019.1 |
| 20260506151213 | 81 | 137 | 7.0 | 8.0 | 0.00 | 0.00 | 0.00 | 72 | 1018.9 |
| 20260506150709 | 81 | 158 | 4.0 | 5.0 | 0.00 | 0.00 | 0.00 | 73 | 1019.0 |
| 20260506150207 | 82 | 120 | 4.0 | 5.0 | 0.00 | 0.00 | 0.00 | 73 | 1019.1 |
| 20260506145704 | 80 | 187 | 5.0 | 7.0 | 0.00 | 0.00 | 0.00 | 74 | 1018.9 |
| 20260506145200 | 80 | 128 | 6.0 | 7.0 | 0.00 | 0.00 | 0.00 | 75 | 1019.0 |
| 20260506144658 | 80 | 131 | 4.0 | 6.0 | 0.00 | 0.00 | 0.00 | 74 | 1019.0 |
| 20260506144155 | 80 | 231 | 3.0 | 5.0 | 0.00 | 0.00 | 0.00 | 75 | 1018.9 |
| 20260506143653 | 80 | 263 | 2.0 | 2.0 | 0.00 | 0.00 | 0.00 | 74 | 1019.0 |
| 20260506143150 | 80 | 246 | 4.0 | 5.0 | 0.00 | 0.00 | 0.00 | 76 | 1019.0 |
| 20260506142648 | 78 | 198 | 9.0 | 13.0 | 0.00 | 0.00 | 0.00 | 77 | 1018.9 |
| 20260506142146 | 79 | 205 | 2.0 | 3.0 | 0.00 | 0.00 | 0.00 | 76 | 1018.9 |
| 20260506141643 | 79 | 122 | 1.0 | 2.0 | 0.00 | 0.00 | 0.00 | 76 | 1018.8 |
| 20260506141141 | 78 | 212 | 5.0 | 6.0 | 0.00 | 0.00 | 0.00 | 77 | 1018.9 |
| 20260506140638 | 78 | 178 | 4.0 | 6.0 | 0.00 | 0.00 | 0.00 | 78 | 1018.7 |
| 20260506140136 | 77 | 204 | 3.0 | 5.0 | 0.00 | 0.00 | 0.00 | 79 | 1018.6 |
| 20260506135633 | 77 | 169 | 5.0 | 6.0 | 0.00 | 0.00 | 0.00 | 79 | 1018.6 |
| 20260506135129 | 77 | 191 | 9.0 | 10.0 | 0.00 | 0.00 | 0.00 | 80 | 1018.6 |
| 20260506134626 | 76 | 200 | 3.0 | 5.0 | 0.00 | 0.00 | 0.00 | 81 | 1018.8 |
| 20260506134121 | 76 | 146 | 5.0 | 7.0 | 0.00 | 0.00 | 0.00 | 80 | 1018.9 |
| 20260506133619 | 76 | 142 | 5.0 | 7.0 | 0.00 | 0.00 | 0.00 | 80 | 1018.7 |
| 20260506133116 | 75 | 126 | 2.0 | 2.0 | 0.00 | 0.00 | 0.00 | 81 | 1018.6 |
| 20260506132613 | 76 | 156 | 5.0 | 8.0 | 0.00 | 0.00 | 0.00 | 80 | 1018.8 |
| 20260506132110 | 75 | 102 | 0.0 | 1.0 | 0.00 | 0.00 | 0.00 | 80 | 1018.6 |
| 20260506131608 | 75 | 171 | 4.0 | 6.0 | 0.00 | 0.00 | 0.00 | 79 | 1018.7 |
| 20260506131103 | 75 | 170 | 6.0 | 7.0 | 0.00 | 0.00 | 0.00 | 79 | 1018.6 |
| 20260506130601 | 75 | 117 | 2.0 | 3.0 | 0.00 | 0.00 | 0.00 | 79 | 1018.7 |
| 20260506130058 | 74 | 192 | 4.0 | 8.0 | 0.00 | 0.00 | 0.00 | 79 | 1018.5 |
| 20260506125556 | 73 | 102 | 2.0 | 2.0 | 0.00 | 0.00 | 0.00 | 80 | 1018.4 |
| 20260506125054 | 73 | 104 | 3.0 | 3.0 | 0.00 | 0.00 | 0.00 | 80 | 1018.5 |
| 20260506124551 | 72 | 190 | 3.0 | 3.0 | 0.00 | 0.00 | 0.00 | 81 | 1018.5 |
| 20260506124049 | 71 | 124 | 1.0 | 1.0 | 0.00 | 0.00 | 0.00 | 82 | 1018.4 |
| 20260506123546 | 70 | 124 | 3.0 | 3.0 | 0.00 | 0.00 | 0.00 | 82 | 1018.4 |
| 20260506123045 | 70 | 136 | 4.0 | 5.0 | 0.00 | 0.00 | 0.00 | 83 | 1018.6 |
| 20260506122541 | 69 | 188 | 5.0 | 6.0 | 0.00 | 0.00 | 0.00 | 84 | 1018.4 |
| 20260506122039 | 69 | 162 | 5.0 | 5.0 | 0.00 | 0.00 | 0.00 | 85 | 1018.3 |
| 20260506121536 | 68 | 115 | 2.0 | 2.0 | 0.00 | 0.00 | 0.00 | 86 | 1018.3 |
| 20260506121032 | 67 | 131 | 2.0 | 2.0 | 0.00 | 0.00 | 0.00 | 87 | 1018.2 |
| 20260506120530 | 66 | 133 | 2.0 | 2.0 | 0.00 | 0.00 | 0.00 | 88 | 1018.2 |
| 20260506120028 | 65 | 104 | 1.0 | 1.0 | 0.00 | 0.00 | 0.00 | 89 | 1018.1 |
| 20260506115526 | 64 | 102 | 0.0 | 1.0 | 0.00 | 0.00 | 0.00 | 90 | 1017.9 |
| 20260506115024 | 63 | 98 | 1.0 | 1.0 | 0.00 | 0.00 | 0.00 | 93 | 1018.1 |
| 20260506114520 | 62 | 90 | 0.0 | 0.0 | 0.00 | 0.00 | 0.00 | 95 | 1018.0 |
| 20260506114019 | 62 | 93 | 0.0 | 0.0 | 0.00 | 0.00 | 0.00 | 96 | 1017.9 |
| 20260506113517 | 61 | 89 | 0.0 | 0.0 | 0.00 | 0.00 | 0.00 | 97 | 1017.7 |
| 20260506113014 | 61 | 92 | 0.0 | 0.0 | 0.00 | 0.00 | 0.00 | 97 | 1018.0 |
| 20260506112510 | 60 | 91 | 0.0 | 0.0 | 0.00 | 0.00 | 0.00 | 98 | 1017.8 |
| 20260506112008 | 60 | 88 | 0.0 | 0.0 | 0.00 | 0.00 | 0.00 | 98 | 1018.0 |
| 20260506111506 | 59 | 90 | 0.0 | 0.0 | 0.00 | 0.00 | 0.00 | 99 | 1017.8 |
| 20260506111002 | 59 | 91 | 0.0 | 0.0 | 0.00 | 0.00 | 0.00 | 99 | 1017.7 |
| 20260506110500 | 59 | 92 | 0.0 | 0.0 | 0.00 | 0.00 | 0.00 | 99 | 1017.7 |
| 20260506105956 | 59 | 88 | 0.0 | 0.0 | 0.00 | 0.00 | 0.00 | 99 | 1017.8 |
| 20260506105453 | 59 | 92 | 0.0 | 0.0 | 0.00 | 0.00 | 0.00 | 99 | 1017.7 |
| 20260506104951 | 58 | 91 | 0.0 | 0.0 | 0.00 | 0.00 | 0.00 | 99 | 1017.7 |
| 20260506104448 | 58 | 91 | 0.0 | 0.0 | 0.00 | 0.00 | 0.00 | 99 | 1017.4 |
| 20260506103947 | 58 | 92 | 0.0 | 0.0 | 0.00 | 0.00 | 0.00 | 99 | 1017.5 |
| 20260506103443 | 58 | 91 | 0.0 | 0.0 | 0.00 | 0.00 | 0.00 | 99 | 1017.5 |
| 20260506102940 | 58 | 92 | 0.0 | 0.0 | 0.00 | 0.00 | 0.00 | 99 | 1017.6 |
| 20260506102438 | 58 | 92 | 0.0 | 0.0 | 0.00 | 0.00 | 0.00 | 99 | 1017.5 |
| 20260506101935 | 58 | 93 | 0.0 | 0.0 | 0.00 | 0.00 | 0.00 | 99 | 1017.3 |
| 20260506101432 | 58 | 91 | 0.0 | 0.0 | 0.00 | 0.00 | 0.00 | 99 | 1017.6 |
| 20260506100929 | 58 | 88 | 0.0 | 0.0 | 0.00 | 0.00 | 0.00 | 99 | 1017.7 |
| 20260506100427 | 59 | 89 | 0.0 | 0.0 | 0.00 | 0.00 | 0.00 | 99 | 1017.4 |
| 20260506095925 | 58 | 92 | 0.0 | 0.0 | 0.00 | 0.00 | 0.00 | 99 | 1017.5 |
| 20260506095423 | 59 | 88 | 0.0 | 0.0 | 0.00 | 0.00 | 0.00 | 98 | 1017.7 |
| 20260506094919 | 59 | 88 | 0.0 | 0.0 | 0.00 | 0.00 | 0.00 | 98 | 1017.6 |
| 20260506094418 | 59 | 88 | 0.0 | 0.0 | 0.00 | 0.00 | 0.00 | 98 | 1017.4 |
| 20260506093915 | 59 | 88 | 0.0 | 0.0 | 0.00 | 0.00 | 0.00 | 97 | 1017.5 |
| 20260506093413 | 59 | 88 | 0.0 | 0.0 | 0.00 | 0.00 | 0.00 | 97 | 1017.2 |
| 20260506092910 | 59 | 88 | 0.0 | 0.0 | 0.00 | 0.00 | 0.00 | 97 | 1017.5 |
| 20260506092408 | 59 | 92 | 0.0 | 0.0 | 0.00 | 0.00 | 0.00 | 97 | 1017.1 |
| 20260506091904 | 59 | 88 | 0.0 | 0.0 | 0.00 | 0.00 | 0.00 | 97 | 1017.3 |
| 20260506091403 | 59 | 88 | 0.0 | 0.0 | 0.00 | 0.00 | 0.00 | 97 | 1017.5 |
| 20260506090859 | 59 | 88 | 0.0 | 0.0 | 0.00 | 0.00 | 0.00 | 96 | 1017.4 |
| 20260506090357 | 59 | 88 | 0.0 | 0.0 | 0.00 | 0.00 | 0.00 | 96 | 1017.4 |
| 20260506085853 | 59 | 88 | 0.0 | 0.0 | 0.00 | 0.00 | 0.00 | 96 | 1017.4 |
| 20260506085350 | 60 | 88 | 0.0 | 0.0 | 0.00 | 0.00 | 0.00 | 96 | 1017.4 |
| 20260506084847 | 59 | 89 | 0.0 | 0.0 | 0.00 | 0.00 | 0.00 | 96 | 1017.2 |
| 20260506084343 | 60 | 89 | 0.0 | 0.0 | 0.00 | 0.00 | 0.00 | 96 | 1017.6 |
| 20260506083840 | 60 | 88 | 0.0 | 0.0 | 0.00 | 0.00 | 0.00 | 95 | 1017.5 |
| 20260506083338 | 60 | 88 | 0.0 | 0.0 | 0.00 | 0.00 | 0.00 | 95 | 1017.2 |
| 20260506082835 | 60 | 88 | 0.0 | 0.0 | 0.00 | 0.00 | 0.00 | 95 | 1017.2 |
| 20260506082331 | 60 | 88 | 0.0 | 0.0 | 0.00 | 0.00 | 0.00 | 94 | 1017.1 |
| 20260506081827 | 60 | 88 | 0.0 | 0.0 | 0.00 | 0.00 | 0.00 | 94 | 1017.5 |
| 20260506081326 | 60 | 88 | 0.0 | 0.0 | 0.00 | 0.00 | 0.00 | 93 | 1017.4 |
| 20260506080823 | 60 | 88 | 0.0 | 0.0 | 0.00 | 0.00 | 0.00 | 93 | 1017.6 |
| 20260506080319 | 60 | 88 | 0.0 | 0.0 | 0.00 | 0.00 | 0.00 | 93 | 1017.3 |
| 20260506073304 | 62 | 88 | 0.0 | 0.0 | 0.00 | 0.00 | 0.00 | 89 | 1017.1 |
| 20260506072800 | 62 | 90 | 0.0 | 0.0 | 0.00 | 0.00 | 0.00 | 89 | 1017.1 |
| 20260506072258 | 62 | 88 | 0.0 | 0.0 | 0.00 | 0.00 | 0.00 | 89 | 1017.0 |
| 20260506071755 | 62 | 88 | 0.0 | 0.0 | 0.00 | 0.00 | 0.00 | 89 | 1017.4 |
| 20260506071253 | 62 | 90 | 0.0 | 0.0 | 0.00 | 0.00 | 0.00 | 88 | 1017.2 |
| 20260506070750 | 62 | 90 | 0.0 | 0.0 | 0.00 | 0.00 | 0.00 | 88 | 1017.2 |
| 20260506070247 | 62 | 93 | 0.0 | 0.0 | 0.00 | 0.00 | 0.00 | 87 | 1017.3 |
| 20260506062224 | 62 | 92 | 0.0 | 1.0 | 0.00 | 0.00 | 0.00 | 87 | 1017.7 |
| 20260506061719 | 61 | 85 | 0.0 | 0.0 | 0.00 | 0.00 | 0.00 | 89 | 1017.5 |
| 20260506061217 | 61 | 91 | 0.0 | 0.0 | 0.00 | 0.00 | 0.00 | 89 | 1017.7 |
| 20260506060716 | 61 | 93 | 0.0 | 0.0 | 0.00 | 0.00 | 0.00 | 89 | 1017.7 |
| 20260506060212 | 62 | 91 | 0.0 | 0.0 | 0.00 | 0.00 | 0.00 | 89 | 1017.8 |
| 20260506051144 | 62 | 91 | 0.0 | 0.0 | 0.00 | 0.00 | 0.00 | 88 | 1017.9 |
| 20260506050643 | 63 | 88 | 0.0 | 0.0 | 0.00 | 0.00 | 0.00 | 87 | 1018.1 |
| 20260506050139 | 63 | 87 | 0.0 | 0.0 | 0.00 | 0.00 | 0.00 | 86 | 1018.4 |
| 20260506045132 | 63 | 88 | 0.0 | 0.0 | 0.00 | 0.00 | 0.00 | 87 | 1018.3 |
| 20260506044631 | 63 | 91 | 0.0 | 0.0 | 0.00 | 0.00 | 0.00 | 87 | 1018.4 |
| 20260506044127 | 63 | 91 | 0.0 | 0.0 | 0.00 | 0.00 | 0.00 | 87 | 1018.5 |
| 20260506043624 | 63 | 94 | 0.0 | 0.0 | 0.00 | 0.00 | 0.00 | 88 | 1018.6 |
| 20260506043123 | 63 | 91 | 0.0 | 0.0 | 0.00 | 0.00 | 0.00 | 88 | 1018.5 |
| 20260506042621 | 64 | 88 | 0.0 | 0.0 | 0.00 | 0.00 | 0.00 | 86 | 1018.6 |
| 20260506042119 | 64 | 87 | 0.0 | 0.0 | 0.00 | 0.00 | 0.00 | 86 | 1018.4 |
| 20260506041618 | 64 | 87 | 0.0 | 0.0 | 0.00 | 0.00 | 0.00 | 87 | 1018.5 |
| 20260506041114 | 64 | 91 | 0.0 | 0.0 | 0.00 | 0.00 | 0.00 | 87 | 1018.5 |
| 20260506040612 | 64 | 89 | 0.0 | 0.0 | 0.00 | 0.00 | 0.00 | 86 | 1018.6 |
| 20260506040108 | 64 | 88 | 0.0 | 0.0 | 0.00 | 0.00 | 0.00 | 86 | 1018.4 |
| 20260506035605 | 65 | 88 | 0.0 | 0.0 | 0.00 | 0.00 | 0.00 | 87 | 1018.6 |
| 20260506035102 | 65 | 88 | 0.0 | 0.0 | 0.00 | 0.00 | 0.00 | 86 | 1018.4 |
| 20260506034559 | 65 | 89 | 0.0 | 0.0 | 0.00 | 0.00 | 0.00 | 86 | 1018.4 |
| 20260506034056 | 65 | 91 | 0.0 | 0.0 | 0.00 | 0.00 | 0.00 | 87 | 1018.5 |
| 20260506033553 | 65 | 91 | 0.0 | 0.0 | 0.00 | 0.00 | 0.00 | 87 | 1018.5 |
| 20260506033049 | 66 | 91 | 0.0 | 0.0 | 0.00 | 0.00 | 0.00 | 87 | 1018.6 |
| 20260506032547 | 66 | 91 | 0.0 | 0.0 | 0.00 | 0.00 | 0.00 | 87 | 1018.5 |
| 20260506032044 | 66 | 88 | 0.0 | 0.0 | 0.00 | 0.00 | 0.00 | 86 | 1018.7 |
| 20260506031542 | 66 | 88 | 0.0 | 0.0 | 0.00 | 0.00 | 0.00 | 85 | 1018.4 |
| 20260506031038 | 67 | 87 | 0.0 | 0.0 | 0.00 | 0.00 | 0.00 | 85 | 1018.6 |
| 20260506030536 | 67 | 87 | 0.0 | 0.0 | 0.00 | 0.00 | 0.00 | 86 | 1018.4 |
| 20260506030033 | 67 | 83 | 0.0 | 0.0 | 0.00 | 0.00 | 0.00 | 86 | 1018.3 |
| 20260506025530 | 67 | 88 | 0.0 | 0.0 | 0.00 | 0.00 | 0.00 | 85 | 1018.4 |
| 20260506025026 | 67 | 96 | 0.0 | 0.0 | 0.00 | 0.00 | 0.00 | 85 | 1018.3 |
| 20260506024523 | 67 | 98 | 0.0 | 0.0 | 0.00 | 0.00 | 0.00 | 84 | 1018.3 |
| 20260506024020 | 67 | 87 | 0.0 | 0.0 | 0.00 | 0.00 | 0.00 | 84 | 1018.1 |
| 20260506023516 | 68 | 88 | 0.0 | 0.0 | 0.00 | 0.00 | 0.00 | 84 | 1018.0 |
| 20260506023014 | 68 | 87 | 0.0 | 0.0 | 0.00 | 0.00 | 0.00 | 83 | 1018.2 |
| 20260506022511 | 68 | 96 | 0.0 | 0.0 | 0.00 | 0.00 | 0.00 | 82 | 1018.0 |
| 20260506022009 | 68 | 88 | 0.0 | 0.0 | 0.00 | 0.00 | 0.00 | 82 | 1017.7 |
| 20260506021506 | 69 | 78 | 0.0 | 1.0 | 0.00 | 0.00 | 0.00 | 81 | 1017.7 |
| 20260506021003 | 70 | 74 | 0.0 | 0.0 | 0.00 | 0.00 | 0.00 | 80 | 1017.8 |
| 20260506020500 | 70 | 75 | 1.0 | 1.0 | 0.00 | 0.00 | 0.00 | 79 | 1017.9 |
| 20260506015957 | 69 | 66 | 0.0 | 1.0 | 0.00 | 0.00 | 0.00 | 79 | 1017.7 |
| 20260506015455 | 69 | 109 | 0.0 | 0.0 | 0.00 | 0.00 | 0.00 | 81 | 1017.3 |
| 20260506014951 | 69 | 93 | 0.0 | 0.0 | 0.00 | 0.00 | 0.00 | 81 | 1017.2 |
| 20260506014448 | 69 | 78 | 0.0 | 0.0 | 0.00 | 0.00 | 0.00 | 80 | 1017.1 |
| 20260506013944 | 69 | 89 | 0.0 | 0.0 | 0.00 | 0.00 | 0.00 | 81 | 1017.1 |
| 20260506013443 | 69 | 89 | 0.0 | 0.0 | 0.00 | 0.00 | 0.00 | 81 | 1016.7 |
| 20260506012939 | 69 | 92 | 0.0 | 0.0 | 0.00 | 0.00 | 0.00 | 81 | 1016.8 |
| 20260506012436 | 69 | 95 | 0.0 | 0.0 | 0.00 | 0.00 | 0.00 | 80 | 1016.9 |
| 20260506011932 | 70 | 96 | 0.0 | 0.0 | 0.00 | 0.00 | 0.00 | 79 | 1016.9 |
| 20260506011430 | 70 | 93 | 0.0 | 0.0 | 0.00 | 0.00 | 0.00 | 78 | 1016.9 |
| 20260506010926 | 70 | 93 | 0.0 | 0.0 | 0.00 | 0.00 | 0.00 | 78 | 1016.8 |
| 20260506010426 | 71 | 90 | 0.0 | 0.0 | 0.00 | 0.00 | 0.00 | 77 | 1016.5 |
| 20260506005921 | 71 | 94 | 0.0 | 0.0 | 0.00 | 0.00 | 0.00 | 76 | 1016.7 |
| 20260506005419 | 72 | 96 | 0.0 | 0.0 | 0.00 | 0.00 | 0.00 | 74 | 1016.4 |
| 20260506004914 | 73 | 92 | 0.0 | 0.0 | 0.00 | 0.00 | 0.00 | 73 | 1016.5 |
| 20260506004413 | 73 | 100 | 0.0 | 0.0 | 0.00 | 0.00 | 0.00 | 72 | 1016.6 |
| 20260506003908 | 74 | 92 | 0.0 | 0.0 | 0.00 | 0.00 | 0.00 | 70 | 1016.7 |
| 20260506003404 | 75 | 57 | 0.0 | 0.0 | 0.00 | 0.00 | 0.00 | 69 | 1016.7 |
| 20260506002901 | 75 | 108 | 0.0 | 1.0 | 0.00 | 0.00 | 0.00 | 69 | 1016.8 |
| 20260506002357 | 76 | 72 | 1.0 | 2.0 | 0.00 | 0.00 | 0.00 | 67 | 1016.7 |
| 20260506001853 | 76 | 122 | 0.0 | 1.0 | 0.00 | 0.00 | 0.00 | 67 | 1016.8 |
| 20260506001350 | 77 | 37 | 2.0 | 2.0 | 0.00 | 0.00 | 0.00 | 66 | 1016.7 |
| 20260506000847 | 77 | 95 | 1.0 | 2.0 | 0.00 | 0.00 | 0.00 | 65 | 1016.4 |
| 20260506000346 | 78 | 100 | 0.0 | 0.0 | 0.00 | 0.00 | 0.00 | 65 | 1016.6 |
| 20260505235841 | 78 | 60 | 2.0 | 3.0 | 0.00 | 0.00 | 0.00 | 64 | 1016.3 |
| 20260505235339 | 79 | 233 | 1.0 | 2.0 | 0.00 | 0.00 | 0.00 | 63 | 1016.5 |
| 20260505234836 | 79 | 112 | 1.0 | 1.0 | 0.00 | 0.00 | 0.00 | 63 | 1016.4 |
| 20260505234334 | 80 | 154 | 2.0 | 2.0 | 0.00 | 0.00 | 0.00 | 62 | 1016.2 |
| 20260505233830 | 80 | 269 | 2.0 | 3.0 | 0.00 | 0.00 | 0.00 | 62 | 1016.3 |
| 20260505233328 | 80 | 283 | 1.0 | 2.0 | 0.00 | 0.00 | 0.00 | 61 | 1016.2 |
| 20260505232825 | 80 | 155 | 2.0 | 3.0 | 0.00 | 0.00 | 0.00 | 61 | 1016.2 |
| 20260505232323 | 81 | 247 | 3.0 | 5.0 | 0.00 | 0.00 | 0.00 | 60 | 1016.3 |
| 20260505231820 | 82 | 120 | 2.0 | 3.0 | 0.00 | 0.00 | 0.00 | 59 | 1016.1 |
| 20260505231318 | 82 | 82 | 1.0 | 1.0 | 0.00 | 0.00 | 0.00 | 58 | 1016.1 |
| 20260505230816 | 82 | 206 | 1.0 | 1.0 | 0.00 | 0.00 | 0.00 | 57 | 1016.4 |
| 20260505230312 | 83 | 99 | 2.0 | 3.0 | 0.00 | 0.00 | 0.00 | 57 | 1016.2 |
| 20260505225809 | 83 | 86 | 0.0 | 0.0 | 0.00 | 0.00 | 0.00 | 57 | 1015.9 |
| 20260505225306 | 84 | 145 | 1.0 | 1.0 | 0.00 | 0.00 | 0.00 | 56 | 1015.9 |
| 20260505224801 | 84 | 346 | 3.0 | 3.0 | 0.00 | 0.00 | 0.00 | 55 | 1016.1 |
| 20260505224259 | 84 | 285 | 3.0 | 5.0 | 0.00 | 0.00 | 0.00 | 54 | 1016.0 |
| 20260505223756 | 85 | 126 | 3.0 | 3.0 | 0.00 | 0.00 | 0.00 | 54 | 1016.0 |
| 20260505223253 | 86 | 262 | 3.0 | 6.0 | 0.00 | 0.00 | 0.00 | 53 | 1015.8 |
| 20260505222749 | 86 | 243 | 2.0 | 3.0 | 0.00 | 0.00 | 0.00 | 53 | 1015.8 |
| 20260505222245 | 86 | 167 | 2.0 | 2.0 | 0.00 | 0.00 | 0.00 | 52 | 1015.8 |
| 20260505221742 | 86 | 92 | 1.0 | 2.0 | 0.00 | 0.00 | 0.00 | 52 | 1015.6 |
| 20260505221239 | 86 | 195 | 5.0 | 8.0 | 0.00 | 0.00 | 0.00 | 50 | 1015.6 |
| 20260505220735 | 85 | 312 | 3.0 | 5.0 | 0.00 | 0.00 | 0.00 | 49 | 1015.8 |
| 20260505220233 | 86 | 135 | 2.0 | 2.0 | 0.00 | 0.00 | 0.00 | 48 | 1015.7 |
| 20260505215731 | 85 | 125 | 1.0 | 1.0 | 0.00 | 0.00 | 0.00 | 47 | 1015.7 |
| 20260505215229 | 84 | 117 | 0.0 | 1.0 | 0.00 | 0.00 | 0.00 | 49 | 1015.8 |
| 20260505214726 | 84 | 123 | 1.0 | 1.0 | 0.00 | 0.00 | 0.00 | 49 | 1015.7 |
| 20260505214224 | 84 | 204 | 2.0 | 2.0 | 0.00 | 0.00 | 0.00 | 48 | 1015.9 |
| 20260505213721 | 85 | 110 | 0.0 | 0.0 | 0.00 | 0.00 | 0.00 | 49 | 1015.6 |
| 20260505213218 | 86 | 113 | 2.0 | 2.0 | 0.00 | 0.00 | 0.00 | 47 | 1015.7 |
| 20260505212714 | 86 | 359 | 1.0 | 1.0 | 0.00 | 0.00 | 0.00 | 45 | 1015.7 |
| 20260505212211 | 86 | 63 | 2.0 | 2.0 | 0.00 | 0.00 | 0.00 | 44 | 1015.7 |
| 20260505211708 | 86 | 210 | 5.0 | 6.0 | 0.00 | 0.00 | 0.00 | 44 | 1015.8 |